sensor_id;sensor_type;location;lat;lon;timestamp;P1;durP1;ratioP1;P2;durP2;ratioP2
83495;SDS011;73431;40.794;43.836;2024-02-23T00:01:40;17.70;;;9.00;;
83495;SDS011;73431;40.794;43.836;2024-02-23T00:04:08;15.70;;;9.63;;
83495;SDS011;73431;40.794;43.836;2024-02-23T00:06:36;14.25;;;8.63;;
83495;SDS011;73431;40.794;43.836;2024-02-23T00:09:04;14.20;;;8.10;;
83495;SDS011;73431;40.794;43.836;2024-02-23T00:14:07;13.40;;;7.45;;
83495;SDS011;73431;40.794;43.836;2024-02-23T00:16:39;14.85;;;8.07;;
83495;SDS011;73431;40.794;43.836;2024-02-23T00:19:08;12.32;;;6.97;;
83495;SDS011;73431;40.794;43.836;2024-02-23T00:21:37;12.95;;;7.60;;
83495;SDS011;73431;40.794;43.836;2024-02-23T00:24:09;15.75;;;7.85;;
83495;SDS011;73431;40.794;43.836;2024-02-23T00:26:37;12.80;;;7.57;;
83495;SDS011;73431;40.794;43.836;2024-02-23T00:29:05;15.50;;;8.05;;
83495;SDS011;73431;40.794;43.836;2024-02-23T00:31:33;15.23;;;9.55;;
83495;SDS011;73431;40.794;43.836;2024-02-23T00:34:01;15.55;;;8.13;;
83495;SDS011;73431;40.794;43.836;2024-02-23T00:36:29;18.13;;;8.45;;
83495;SDS011;73431;40.794;43.836;2024-02-23T00:41:24;14.23;;;8.48;;
83495;SDS011;73431;40.794;43.836;2024-02-23T00:43:52;15.23;;;9.05;;
83495;SDS011;73431;40.794;43.836;2024-02-23T00:46:19;14.63;;;8.55;;
83495;SDS011;73431;40.794;43.836;2024-02-23T00:48:47;19.27;;;10.85;;
83495;SDS011;73431;40.794;43.836;2024-02-23T00:51:15;13.05;;;7.53;;
83495;SDS011;73431;40.794;43.836;2024-02-23T00:53:43;15.52;;;7.55;;
83495;SDS011;73431;40.794;43.836;2024-02-23T00:56:11;12.93;;;7.20;;
83495;SDS011;73431;40.794;43.836;2024-02-23T00:58:40;14.32;;;6.20;;
83495;SDS011;73431;40.794;43.836;2024-02-23T01:01:07;8.13;;;5.00;;
83495;SDS011;73431;40.794;43.836;2024-02-23T01:03:35;6.82;;;4.30;;
83495;SDS011;73431;40.794;43.836;2024-02-23T01:06:03;4.28;;;2.42;;
83495;SDS011;73431;40.794;43.836;2024-02-23T01:08:31;1.90;;;0.82;;
83495;SDS011;73431;40.794;43.836;2024-02-23T01:10:59;0.82;;;0.43;;
83495;SDS011;73431;40.794;43.836;2024-02-23T01:13:27;1.00;;;0.60;;
83495;SDS011;73431;40.794;43.836;2024-02-23T01:15:54;1.88;;;0.80;;
83495;SDS011;73431;40.794;43.836;2024-02-23T01:18:22;1.40;;;0.60;;
83495;SDS011;73431;40.794;43.836;2024-02-23T01:20:50;1.52;;;0.75;;
83495;SDS011;73431;40.794;43.836;2024-02-23T01:23:17;0.85;;;0.50;;
83495;SDS011;73431;40.794;43.836;2024-02-23T01:25:45;1.25;;;0.50;;
83495;SDS011;73431;40.794;43.836;2024-02-23T01:28:13;0.55;;;0.32;;
83495;SDS011;73431;40.794;43.836;2024-02-23T01:30:40;1.88;;;0.40;;
83495;SDS011;73431;40.794;43.836;2024-02-23T01:33:08;0.47;;;0.30;;
83495;SDS011;73431;40.794;43.836;2024-02-23T01:38:05;0.32;;;0.20;;
83495;SDS011;73431;40.794;43.836;2024-02-23T01:40:33;0.15;;;0.10;;
83495;SDS011;73431;40.794;43.836;2024-02-23T01:43:03;0.55;;;0.40;;
83495;SDS011;73431;40.794;43.836;2024-02-23T01:45:32;0.28;;;0.20;;
83495;SDS011;73431;40.794;43.836;2024-02-23T01:48:00;0.63;;;0.40;;
83495;SDS011;73431;40.794;43.836;2024-02-23T01:50:31;0.63;;;0.30;;
83495;SDS011;73431;40.794;43.836;2024-02-23T01:53:00;0.75;;;0.28;;
83495;SDS011;73431;40.794;43.836;2024-02-23T01:55:29;0.75;;;0.38;;
83495;SDS011;73431;40.794;43.836;2024-02-23T01:58:04;0.32;;;0.20;;
83495;SDS011;73431;40.794;43.836;2024-02-23T02:00:35;0.45;;;0.20;;
83495;SDS011;73431;40.794;43.836;2024-02-23T02:03:03;0.70;;;0.30;;
83495;SDS011;73431;40.794;43.836;2024-02-23T02:05:36;1.00;;;0.40;;
83495;SDS011;73431;40.794;43.836;2024-02-23T02:08:05;0.40;;;0.20;;
83495;SDS011;73431;40.794;43.836;2024-02-23T02:10:33;0.60;;;0.30;;
83495;SDS011;73431;40.794;43.836;2024-02-23T02:13:02;0.57;;;0.30;;
83495;SDS011;73431;40.794;43.836;2024-02-23T02:15:33;0.20;;;0.10;;
83495;SDS011;73431;40.794;43.836;2024-02-23T02:18:01;0.52;;;0.30;;
83495;SDS011;73431;40.794;43.836;2024-02-23T02:20:30;1.50;;;0.10;;
83495;SDS011;73431;40.794;43.836;2024-02-23T02:23:00;0.68;;;0.30;;
83495;SDS011;73431;40.794;43.836;2024-02-23T02:25:28;0.35;;;0.20;;
83495;SDS011;73431;40.794;43.836;2024-02-23T02:27:56;0.60;;;0.10;;
83495;SDS011;73431;40.794;43.836;2024-02-23T02:30:24;2.13;;;0.17;;
83495;SDS011;73431;40.794;43.836;2024-02-23T02:32:52;0.20;;;0.15;;
83495;SDS011;73431;40.794;43.836;2024-02-23T02:35:19;0.17;;;0.10;;
83495;SDS011;73431;40.794;43.836;2024-02-23T02:37:47;0.73;;;0.20;;
83495;SDS011;73431;40.794;43.836;2024-02-23T02:40:16;0.32;;;0.20;;
83495;SDS011;73431;40.794;43.836;2024-02-23T02:42:44;0.70;;;0.35;;
83495;SDS011;73431;40.794;43.836;2024-02-23T02:45:12;1.70;;;0.50;;
83495;SDS011;73431;40.794;43.836;2024-02-23T02:47:40;1.00;;;0.28;;
83495;SDS011;73431;40.794;43.836;2024-02-23T02:50:09;0.20;;;0.20;;
83495;SDS011;73431;40.794;43.836;2024-02-23T02:52:36;0.45;;;0.32;;
83495;SDS011;73431;40.794;43.836;2024-02-23T02:55:04;0.65;;;0.30;;
83495;SDS011;73431;40.794;43.836;2024-02-23T02:57:32;1.63;;;0.85;;
83495;SDS011;73431;40.794;43.836;2024-02-23T03:00:00;0.82;;;0.40;;
83495;SDS011;73431;40.794;43.836;2024-02-23T03:02:29;1.58;;;0.40;;
83495;SDS011;73431;40.794;43.836;2024-02-23T03:04:57;2.67;;;0.63;;
83495;SDS011;73431;40.794;43.836;2024-02-23T03:07:25;0.90;;;0.50;;
83495;SDS011;73431;40.794;43.836;2024-02-23T03:09:53;1.23;;;0.75;;
83495;SDS011;73431;40.794;43.836;2024-02-23T03:14:48;0.70;;;0.50;;
83495;SDS011;73431;40.794;43.836;2024-02-23T03:17:16;1.40;;;0.38;;
83495;SDS011;73431;40.794;43.836;2024-02-23T03:19:44;0.80;;;0.40;;
83495;SDS011;73431;40.794;43.836;2024-02-23T03:24:40;1.35;;;0.70;;
83495;SDS011;73431;40.794;43.836;2024-02-23T03:27:07;1.25;;;0.55;;
83495;SDS011;73431;40.794;43.836;2024-02-23T03:32:05;0.50;;;0.32;;
83495;SDS011;73431;40.794;43.836;2024-02-23T03:34:33;1.92;;;0.68;;
83495;SDS011;73431;40.794;43.836;2024-02-23T03:37:01;1.48;;;0.65;;
83495;SDS011;73431;40.794;43.836;2024-02-23T03:39:30;1.95;;;0.88;;
83495;SDS011;73431;40.794;43.836;2024-02-23T03:41:59;3.45;;;1.20;;
83495;SDS011;73431;40.794;43.836;2024-02-23T03:44:27;1.33;;;0.82;;
83495;SDS011;73431;40.794;43.836;2024-02-23T03:46:55;0.90;;;0.40;;
83495;SDS011;73431;40.794;43.836;2024-02-23T03:51:51;1.00;;;0.40;;
83495;SDS011;73431;40.794;43.836;2024-02-23T03:54:19;0.80;;;0.45;;
83495;SDS011;73431;40.794;43.836;2024-02-23T03:56:46;1.48;;;0.50;;
83495;SDS011;73431;40.794;43.836;2024-02-23T03:59:14;3.90;;;0.57;;
83495;SDS011;73431;40.794;43.836;2024-02-23T04:01:42;1.42;;;0.80;;
83495;SDS011;73431;40.794;43.836;2024-02-23T04:04:11;1.52;;;0.68;;
83495;SDS011;73431;40.794;43.836;2024-02-23T04:06:39;1.23;;;0.50;;
83495;SDS011;73431;40.794;43.836;2024-02-23T04:09:07;0.90;;;0.55;;
83495;SDS011;73431;40.794;43.836;2024-02-23T04:11:35;4.07;;;1.70;;
83495;SDS011;73431;40.794;43.836;2024-02-23T04:14:03;3.65;;;1.30;;
83495;SDS011;73431;40.794;43.836;2024-02-23T04:16:34;1.90;;;0.80;;
83495;SDS011;73431;40.794;43.836;2024-02-23T04:19:03;1.83;;;1.00;;
83495;SDS011;73431;40.794;43.836;2024-02-23T04:21:30;2.10;;;1.00;;
83495;SDS011;73431;40.794;43.836;2024-02-23T04:23:58;1.58;;;0.80;;
83495;SDS011;73431;40.794;43.836;2024-02-23T04:26:26;1.15;;;0.70;;
83495;SDS011;73431;40.794;43.836;2024-02-23T04:28:54;2.17;;;1.40;;
83495;SDS011;73431;40.794;43.836;2024-02-23T04:31:22;2.00;;;1.00;;
83495;SDS011;73431;40.794;43.836;2024-02-23T04:33:50;5.80;;;2.08;;
83495;SDS011;73431;40.794;43.836;2024-02-23T04:36:21;6.35;;;2.45;;
83495;SDS011;73431;40.794;43.836;2024-02-23T04:38:48;4.78;;;1.90;;
83495;SDS011;73431;40.794;43.836;2024-02-23T04:41:19;1.88;;;1.13;;
83495;SDS011;73431;40.794;43.836;2024-02-23T04:43:48;5.47;;;1.95;;
83495;SDS011;73431;40.794;43.836;2024-02-23T04:46:16;5.50;;;2.28;;
83495;SDS011;73431;40.794;43.836;2024-02-23T04:48:44;5.97;;;2.90;;
83495;SDS011;73431;40.794;43.836;2024-02-23T04:51:12;5.80;;;2.13;;
83495;SDS011;73431;40.794;43.836;2024-02-23T04:53:40;3.13;;;1.63;;
83495;SDS011;73431;40.794;43.836;2024-02-23T04:56:08;4.72;;;1.95;;
83495;SDS011;73431;40.794;43.836;2024-02-23T04:58:36;4.20;;;1.95;;
83495;SDS011;73431;40.794;43.836;2024-02-23T05:01:04;5.88;;;2.83;;
83495;SDS011;73431;40.794;43.836;2024-02-23T05:03:32;10.32;;;4.85;;
83495;SDS011;73431;40.794;43.836;2024-02-23T05:06:00;2.35;;;1.35;;
83495;SDS011;73431;40.794;43.836;2024-02-23T05:08:28;4.97;;;1.95;;
83495;SDS011;73431;40.794;43.836;2024-02-23T05:10:57;5.55;;;2.38;;
83495;SDS011;73431;40.794;43.836;2024-02-23T05:13:25;8.85;;;3.75;;
83495;SDS011;73431;40.794;43.836;2024-02-23T05:15:55;2.45;;;1.58;;
83495;SDS011;73431;40.794;43.836;2024-02-23T05:18:24;5.15;;;2.28;;
83495;SDS011;73431;40.794;43.836;2024-02-23T05:20:52;3.50;;;1.92;;
83495;SDS011;73431;40.794;43.836;2024-02-23T05:23:21;3.70;;;1.92;;
83495;SDS011;73431;40.794;43.836;2024-02-23T05:25:48;18.40;;;12.38;;
83495;SDS011;73431;40.794;43.836;2024-02-23T05:28:17;15.57;;;9.88;;
83495;SDS011;73431;40.794;43.836;2024-02-23T05:30:44;6.72;;;4.60;;
83495;SDS011;73431;40.794;43.836;2024-02-23T05:33:12;9.57;;;5.80;;
83495;SDS011;73431;40.794;43.836;2024-02-23T05:35:40;5.50;;;2.80;;
83495;SDS011;73431;40.794;43.836;2024-02-23T05:38:09;3.88;;;2.53;;
83495;SDS011;73431;40.794;43.836;2024-02-23T05:40:36;6.60;;;2.70;;
83495;SDS011;73431;40.794;43.836;2024-02-23T05:43:05;10.23;;;5.45;;
83495;SDS011;73431;40.794;43.836;2024-02-23T05:45:33;5.53;;;3.65;;
83495;SDS011;73431;40.794;43.836;2024-02-23T05:48:01;5.88;;;2.65;;
83495;SDS011;73431;40.794;43.836;2024-02-23T05:50:29;4.53;;;2.05;;
83495;SDS011;73431;40.794;43.836;2024-02-23T05:52:56;4.25;;;1.75;;
83495;SDS011;73431;40.794;43.836;2024-02-23T05:55:25;3.53;;;2.00;;
83495;SDS011;73431;40.794;43.836;2024-02-23T06:00:20;6.90;;;3.25;;
83495;SDS011;73431;40.794;43.836;2024-02-23T06:02:48;6.68;;;3.75;;
83495;SDS011;73431;40.794;43.836;2024-02-23T06:05:17;5.82;;;2.97;;
83495;SDS011;73431;40.794;43.836;2024-02-23T06:07:45;6.10;;;3.53;;
83495;SDS011;73431;40.794;43.836;2024-02-23T06:10:12;2.88;;;2.22;;
83495;SDS011;73431;40.794;43.836;2024-02-23T06:12:40;2.30;;;1.35;;
83495;SDS011;73431;40.794;43.836;2024-02-23T06:15:08;4.03;;;1.73;;
83495;SDS011;73431;40.794;43.836;2024-02-23T06:17:37;3.17;;;1.42;;
83495;SDS011;73431;40.794;43.836;2024-02-23T06:20:06;2.80;;;1.63;;
83495;SDS011;73431;40.794;43.836;2024-02-23T06:22:35;3.03;;;1.80;;
83495;SDS011;73431;40.794;43.836;2024-02-23T06:27:30;4.22;;;1.40;;
83495;SDS011;73431;40.794;43.836;2024-02-23T06:29:58;2.75;;;1.30;;
83495;SDS011;73431;40.794;43.836;2024-02-23T06:32:26;3.03;;;1.55;;
83495;SDS011;73431;40.794;43.836;2024-02-23T06:34:54;2.97;;;1.27;;
83495;SDS011;73431;40.794;43.836;2024-02-23T06:37:25;3.17;;;2.25;;
83495;SDS011;73431;40.794;43.836;2024-02-23T06:39:53;2.97;;;1.90;;
83495;SDS011;73431;40.794;43.836;2024-02-23T06:42:21;3.58;;;1.70;;
83495;SDS011;73431;40.794;43.836;2024-02-23T06:44:49;3.15;;;1.27;;
83495;SDS011;73431;40.794;43.836;2024-02-23T06:49:46;3.03;;;1.67;;
83495;SDS011;73431;40.794;43.836;2024-02-23T06:52:13;2.25;;;1.20;;
83495;SDS011;73431;40.794;43.836;2024-02-23T06:54:41;3.05;;;1.92;;
83495;SDS011;73431;40.794;43.836;2024-02-23T06:57:09;4.20;;;2.50;;
83495;SDS011;73431;40.794;43.836;2024-02-23T06:59:36;3.83;;;2.00;;
83495;SDS011;73431;40.794;43.836;2024-02-23T07:02:04;3.25;;;1.90;;
83495;SDS011;73431;40.794;43.836;2024-02-23T07:04:32;3.13;;;1.88;;
83495;SDS011;73431;40.794;43.836;2024-02-23T07:09:34;3.53;;;1.65;;
83495;SDS011;73431;40.794;43.836;2024-02-23T07:12:02;3.95;;;2.47;;
83495;SDS011;73431;40.794;43.836;2024-02-23T07:14:30;5.85;;;3.00;;
83495;SDS011;73431;40.794;43.836;2024-02-23T07:16:58;7.50;;;3.50;;
83495;SDS011;73431;40.794;43.836;2024-02-23T07:19:26;6.40;;;3.25;;
83495;SDS011;73431;40.794;43.836;2024-02-23T07:21:54;5.82;;;2.95;;
83495;SDS011;73431;40.794;43.836;2024-02-23T07:24:21;5.70;;;2.30;;
83495;SDS011;73431;40.794;43.836;2024-02-23T07:26:49;3.15;;;1.80;;
83495;SDS011;73431;40.794;43.836;2024-02-23T07:29:17;3.75;;;1.90;;
83495;SDS011;73431;40.794;43.836;2024-02-23T07:31:45;3.45;;;1.42;;
83495;SDS011;73431;40.794;43.836;2024-02-23T07:34:13;2.05;;;1.27;;
83495;SDS011;73431;40.794;43.836;2024-02-23T07:36:41;3.17;;;1.67;;
83495;SDS011;73431;40.794;43.836;2024-02-23T07:39:10;2.80;;;1.60;;
83495;SDS011;73431;40.794;43.836;2024-02-23T07:41:38;2.88;;;1.70;;
83495;SDS011;73431;40.794;43.836;2024-02-23T07:44:06;3.20;;;1.80;;
83495;SDS011;73431;40.794;43.836;2024-02-23T07:46:34;3.08;;;1.88;;
83495;SDS011;73431;40.794;43.836;2024-02-23T07:49:05;2.67;;;1.98;;
83495;SDS011;73431;40.794;43.836;2024-02-23T07:51:36;3.55;;;2.22;;
83495;SDS011;73431;40.794;43.836;2024-02-23T07:54:04;2.85;;;1.77;;
83495;SDS011;73431;40.794;43.836;2024-02-23T07:56:32;2.92;;;1.50;;
83495;SDS011;73431;40.794;43.836;2024-02-23T08:01:30;4.60;;;2.38;;
83495;SDS011;73431;40.794;43.836;2024-02-23T08:03:58;3.78;;;2.38;;
83495;SDS011;73431;40.794;43.836;2024-02-23T08:06:25;7.72;;;2.65;;
83495;SDS011;73431;40.794;43.836;2024-02-23T08:08:53;3.78;;;1.75;;
83495;SDS011;73431;40.794;43.836;2024-02-23T08:11:22;2.33;;;1.88;;
83495;SDS011;73431;40.794;43.836;2024-02-23T08:13:49;4.80;;;2.53;;
83495;SDS011;73431;40.794;43.836;2024-02-23T08:16:17;3.90;;;1.55;;
83495;SDS011;73431;40.794;43.836;2024-02-23T08:18:45;3.80;;;1.35;;
83495;SDS011;73431;40.794;43.836;2024-02-23T08:21:13;5.90;;;2.25;;
83495;SDS011;73431;40.794;43.836;2024-02-23T08:23:40;2.28;;;1.40;;
83495;SDS011;73431;40.794;43.836;2024-02-23T08:26:08;3.05;;;1.48;;
83495;SDS011;73431;40.794;43.836;2024-02-23T08:28:37;3.47;;;1.90;;
83495;SDS011;73431;40.794;43.836;2024-02-23T08:31:05;4.80;;;2.30;;
83495;SDS011;73431;40.794;43.836;2024-02-23T08:36:00;5.63;;;1.52;;
83495;SDS011;73431;40.794;43.836;2024-02-23T08:40:56;2.08;;;1.48;;
83495;SDS011;73431;40.794;43.836;2024-02-23T08:43:25;6.25;;;1.08;;
83495;SDS011;73431;40.794;43.836;2024-02-23T08:45:52;1.98;;;1.10;;
83495;SDS011;73431;40.794;43.836;2024-02-23T08:48:20;5.40;;;1.38;;
83495;SDS011;73431;40.794;43.836;2024-02-23T08:50:48;1.60;;;0.93;;
83495;SDS011;73431;40.794;43.836;2024-02-23T08:53:16;2.83;;;1.38;;
83495;SDS011;73431;40.794;43.836;2024-02-23T08:55:44;5.43;;;2.70;;
83495;SDS011;73431;40.794;43.836;2024-02-23T08:58:12;6.43;;;2.25;;
83495;SDS011;73431;40.794;43.836;2024-02-23T09:00:40;3.58;;;2.00;;
83495;SDS011;73431;40.794;43.836;2024-02-23T09:03:08;6.63;;;1.90;;
83495;SDS011;73431;40.794;43.836;2024-02-23T09:05:35;3.30;;;1.48;;
83495;SDS011;73431;40.794;43.836;2024-02-23T09:08:03;2.63;;;1.45;;
83495;SDS011;73431;40.794;43.836;2024-02-23T09:10:32;6.07;;;2.45;;
83495;SDS011;73431;40.794;43.836;2024-02-23T09:13:00;3.25;;;1.60;;
83495;SDS011;73431;40.794;43.836;2024-02-23T09:15:28;9.60;;;1.92;;
83495;SDS011;73431;40.794;43.836;2024-02-23T09:17:57;2.95;;;1.17;;
83495;SDS011;73431;40.794;43.836;2024-02-23T09:22:54;8.77;;;4.60;;
83495;SDS011;73431;40.794;43.836;2024-02-23T09:25:22;4.47;;;1.55;;
83495;SDS011;73431;40.794;43.836;2024-02-23T09:27:50;9.40;;;3.13;;
83495;SDS011;73431;40.794;43.836;2024-02-23T09:30:17;4.13;;;1.85;;
83495;SDS011;73431;40.794;43.836;2024-02-23T09:32:46;2.30;;;0.93;;
83495;SDS011;73431;40.794;43.836;2024-02-23T09:37:42;2.40;;;1.25;;
83495;SDS011;73431;40.794;43.836;2024-02-23T09:40:10;3.78;;;1.60;;
83495;SDS011;73431;40.794;43.836;2024-02-23T09:42:38;11.95;;;1.42;;
83495;SDS011;73431;40.794;43.836;2024-02-23T09:45:06;2.47;;;1.50;;
83495;SDS011;73431;40.794;43.836;2024-02-23T09:47:38;4.30;;;1.55;;
83495;SDS011;73431;40.794;43.836;2024-02-23T09:50:07;2.80;;;1.42;;
83495;SDS011;73431;40.794;43.836;2024-02-23T09:52:36;2.80;;;1.45;;
83495;SDS011;73431;40.794;43.836;2024-02-23T09:55:04;10.95;;;1.65;;
83495;SDS011;73431;40.794;43.836;2024-02-23T09:57:32;11.57;;;1.30;;
83495;SDS011;73431;40.794;43.836;2024-02-23T10:00:01;2.70;;;1.35;;
83495;SDS011;73431;40.794;43.836;2024-02-23T10:02:38;1.90;;;0.95;;
83495;SDS011;73431;40.794;43.836;2024-02-23T10:05:07;2.00;;;1.13;;
83495;SDS011;73431;40.794;43.836;2024-02-23T10:07:37;3.63;;;1.45;;
83495;SDS011;73431;40.794;43.836;2024-02-23T10:10:08;4.07;;;1.10;;
83495;SDS011;73431;40.794;43.836;2024-02-23T10:12:38;6.38;;;2.50;;
83495;SDS011;73431;40.794;43.836;2024-02-23T10:15:06;2.85;;;1.30;;
83495;SDS011;73431;40.794;43.836;2024-02-23T10:17:35;1.90;;;1.20;;
83495;SDS011;73431;40.794;43.836;2024-02-23T10:20:03;3.88;;;1.23;;
83495;SDS011;73431;40.794;43.836;2024-02-23T10:22:31;3.67;;;1.40;;
83495;SDS011;73431;40.794;43.836;2024-02-23T10:24:59;3.78;;;1.70;;
83495;SDS011;73431;40.794;43.836;2024-02-23T10:27:28;4.75;;;2.05;;
83495;SDS011;73431;40.794;43.836;2024-02-23T10:29:56;2.33;;;1.13;;
83495;SDS011;73431;40.794;43.836;2024-02-23T10:32:24;2.08;;;1.10;;
83495;SDS011;73431;40.794;43.836;2024-02-23T10:34:53;1.17;;;0.98;;
83495;SDS011;73431;40.794;43.836;2024-02-23T10:37:25;1.70;;;1.00;;
83495;SDS011;73431;40.794;43.836;2024-02-23T10:39:56;2.47;;;1.13;;
83495;SDS011;73431;40.794;43.836;2024-02-23T10:42:26;3.35;;;1.70;;
83495;SDS011;73431;40.794;43.836;2024-02-23T10:44:58;4.60;;;1.42;;
83495;SDS011;73431;40.794;43.836;2024-02-23T10:47:30;3.75;;;1.85;;
83495;SDS011;73431;40.794;43.836;2024-02-23T10:50:02;3.58;;;1.20;;
83495;SDS011;73431;40.794;43.836;2024-02-23T10:52:29;2.08;;;1.40;;
83495;SDS011;73431;40.794;43.836;2024-02-23T10:55:00;2.45;;;1.50;;
83495;SDS011;73431;40.794;43.836;2024-02-23T10:57:32;2.00;;;1.00;;
83495;SDS011;73431;40.794;43.836;2024-02-23T11:00:02;2.53;;;1.27;;
83495;SDS011;73431;40.794;43.836;2024-02-23T11:02:46;4.15;;;2.10;;
83495;SDS011;73431;40.794;43.836;2024-02-23T11:05:19;2.67;;;1.55;;
83495;SDS011;73431;40.794;43.836;2024-02-23T11:07:48;1.92;;;1.25;;
83495;SDS011;73431;40.794;43.836;2024-02-23T11:10:19;2.33;;;1.10;;
83495;SDS011;73431;40.794;43.836;2024-02-23T11:12:58;8.40;;;1.70;;
83495;SDS011;73431;40.794;43.836;2024-02-23T11:15:27;6.47;;;2.72;;
83495;SDS011;73431;40.794;43.836;2024-02-23T11:17:56;8.57;;;1.38;;
83495;SDS011;73431;40.794;43.836;2024-02-23T11:23:01;4.90;;;1.70;;
83495;SDS011;73431;40.794;43.836;2024-02-23T11:25:29;3.63;;;2.00;;
83495;SDS011;73431;40.794;43.836;2024-02-23T11:27:56;4.57;;;1.92;;
83495;SDS011;73431;40.794;43.836;2024-02-23T11:30:25;2.47;;;1.30;;
83495;SDS011;73431;40.794;43.836;2024-02-23T11:32:58;2.70;;;1.70;;
83495;SDS011;73431;40.794;43.836;2024-02-23T11:35:27;6.78;;;1.83;;
83495;SDS011;73431;40.794;43.836;2024-02-23T11:37:55;5.28;;;1.58;;
83495;SDS011;73431;40.794;43.836;2024-02-23T11:40:28;4.03;;;1.70;;
83495;SDS011;73431;40.794;43.836;2024-02-23T11:42:57;8.00;;;1.90;;
83495;SDS011;73431;40.794;43.836;2024-02-23T11:45:30;11.20;;;2.10;;
83495;SDS011;73431;40.794;43.836;2024-02-23T11:47:58;1.92;;;1.42;;
83495;SDS011;73431;40.794;43.836;2024-02-23T11:50:27;9.85;;;2.00;;
83495;SDS011;73431;40.794;43.836;2024-02-23T11:52:55;4.22;;;2.45;;
83495;SDS011;73431;40.794;43.836;2024-02-23T11:55:23;7.20;;;2.55;;
83495;SDS011;73431;40.794;43.836;2024-02-23T11:57:51;9.35;;;1.45;;
83495;SDS011;73431;40.794;43.836;2024-02-23T12:00:31;4.38;;;1.48;;
83495;SDS011;73431;40.794;43.836;2024-02-23T12:03:00;8.23;;;2.80;;
83495;SDS011;73431;40.794;43.836;2024-02-23T12:07:55;10.85;;;2.95;;
83495;SDS011;73431;40.794;43.836;2024-02-23T12:10:26;2.97;;;1.92;;
83495;SDS011;73431;40.794;43.836;2024-02-23T12:12:54;5.20;;;1.90;;
83495;SDS011;73431;40.794;43.836;2024-02-23T12:15:23;2.83;;;1.80;;
83495;SDS011;73431;40.794;43.836;2024-02-23T12:17:57;2.50;;;1.52;;
83495;SDS011;73431;40.794;43.836;2024-02-23T12:20:27;2.55;;;1.27;;
83495;SDS011;73431;40.794;43.836;2024-02-23T12:22:55;3.08;;;1.80;;
83495;SDS011;73431;40.794;43.836;2024-02-23T12:25:24;2.67;;;1.50;;
83495;SDS011;73431;40.794;43.836;2024-02-23T12:27:55;2.70;;;1.45;;
83495;SDS011;73431;40.794;43.836;2024-02-23T12:30:24;2.58;;;1.70;;
83495;SDS011;73431;40.794;43.836;2024-02-23T12:33:03;7.00;;;3.53;;
83495;SDS011;73431;40.794;43.836;2024-02-23T12:35:32;3.60;;;2.17;;
83495;SDS011;73431;40.794;43.836;2024-02-23T12:38:02;7.05;;;3.53;;
83495;SDS011;73431;40.794;43.836;2024-02-23T12:40:30;3.95;;;2.17;;
83495;SDS011;73431;40.794;43.836;2024-02-23T12:42:58;5.88;;;2.10;;
83495;SDS011;73431;40.794;43.836;2024-02-23T12:47:53;2.75;;;1.38;;
83495;SDS011;73431;40.794;43.836;2024-02-23T12:52:48;3.30;;;1.60;;
83495;SDS011;73431;40.794;43.836;2024-02-23T12:55:16;2.63;;;1.55;;
83495;SDS011;73431;40.794;43.836;2024-02-23T12:57:44;3.78;;;1.85;;
83495;SDS011;73431;40.794;43.836;2024-02-23T13:00:12;2.25;;;1.20;;
83495;SDS011;73431;40.794;43.836;2024-02-23T13:02:40;3.88;;;1.90;;
83495;SDS011;73431;40.794;43.836;2024-02-23T13:05:08;2.50;;;1.17;;
83495;SDS011;73431;40.794;43.836;2024-02-23T13:07:36;3.92;;;1.48;;
83495;SDS011;73431;40.794;43.836;2024-02-23T13:10:06;8.25;;;1.77;;
83495;SDS011;73431;40.794;43.836;2024-02-23T13:15:01;6.65;;;2.60;;
83495;SDS011;73431;40.794;43.836;2024-02-23T13:17:30;12.93;;;3.35;;
83495;SDS011;73431;40.794;43.836;2024-02-23T13:19:58;7.95;;;2.95;;
83495;SDS011;73431;40.794;43.836;2024-02-23T13:22:37;8.27;;;2.63;;
83495;SDS011;73431;40.794;43.836;2024-02-23T13:27:33;5.22;;;2.42;;
83495;SDS011;73431;40.794;43.836;2024-02-23T13:30:02;11.52;;;2.53;;
83495;SDS011;73431;40.794;43.836;2024-02-23T13:32:30;10.95;;;3.75;;
83495;SDS011;73431;40.794;43.836;2024-02-23T13:34:58;6.45;;;2.65;;
83495;SDS011;73431;40.794;43.836;2024-02-23T13:37:31;6.93;;;2.90;;
83495;SDS011;73431;40.794;43.836;2024-02-23T13:40:00;6.20;;;2.53;;
83495;SDS011;73431;40.794;43.836;2024-02-23T13:42:28;6.82;;;3.13;;
83495;SDS011;73431;40.794;43.836;2024-02-23T13:44:56;6.43;;;2.40;;
83495;SDS011;73431;40.794;43.836;2024-02-23T13:47:26;3.63;;;2.08;;
83495;SDS011;73431;40.794;43.836;2024-02-23T13:49:54;7.00;;;2.63;;
83495;SDS011;73431;40.794;43.836;2024-02-23T13:52:22;7.65;;;2.67;;
83495;SDS011;73431;40.794;43.836;2024-02-23T13:54:50;13.30;;;2.63;;
83495;SDS011;73431;40.794;43.836;2024-02-23T13:57:17;19.55;;;7.40;;
83495;SDS011;73431;40.794;43.836;2024-02-23T13:59:45;9.98;;;3.13;;
83495;SDS011;73431;40.794;43.836;2024-02-23T14:04:41;12.43;;;3.22;;
83495;SDS011;73431;40.794;43.836;2024-02-23T14:07:09;12.18;;;4.78;;
83495;SDS011;73431;40.794;43.836;2024-02-23T14:09:37;17.48;;;7.53;;
83495;SDS011;73431;40.794;43.836;2024-02-23T14:12:05;9.68;;;4.72;;
83495;SDS011;73431;40.794;43.836;2024-02-23T14:14:33;14.13;;;3.00;;
83495;SDS011;73431;40.794;43.836;2024-02-23T14:17:01;10.43;;;4.28;;
83495;SDS011;73431;40.794;43.836;2024-02-23T14:21:57;10.10;;;5.18;;
83495;SDS011;73431;40.794;43.836;2024-02-23T14:24:25;9.15;;;3.97;;
83495;SDS011;73431;40.794;43.836;2024-02-23T14:26:52;14.73;;;4.70;;
83495;SDS011;73431;40.794;43.836;2024-02-23T14:29:20;14.60;;;4.00;;
83495;SDS011;73431;40.794;43.836;2024-02-23T14:31:48;12.57;;;5.28;;
83495;SDS011;73431;40.794;43.836;2024-02-23T14:34:16;13.68;;;5.43;;
83495;SDS011;73431;40.794;43.836;2024-02-23T14:36:44;15.73;;;5.15;;
83495;SDS011;73431;40.794;43.836;2024-02-23T14:39:11;17.27;;;6.75;;
83495;SDS011;73431;40.794;43.836;2024-02-23T14:41:40;13.18;;;5.95;;
83495;SDS011;73431;40.794;43.836;2024-02-23T14:44:08;44.30;;;14.73;;
83495;SDS011;73431;40.794;43.836;2024-02-23T14:46:36;24.25;;;10.07;;
83495;SDS011;73431;40.794;43.836;2024-02-23T14:49:07;27.25;;;16.08;;
83495;SDS011;73431;40.794;43.836;2024-02-23T14:51:34;23.20;;;8.77;;
83495;SDS011;73431;40.794;43.836;2024-02-23T14:54:04;34.35;;;17.45;;
83495;SDS011;73431;40.794;43.836;2024-02-23T14:58:59;19.10;;;5.80;;
83495;SDS011;73431;40.794;43.836;2024-02-23T15:01:32;24.33;;;9.73;;
83495;SDS011;73431;40.794;43.836;2024-02-23T15:04:00;16.42;;;6.07;;
83495;SDS011;73431;40.794;43.836;2024-02-23T15:06:28;13.57;;;4.82;;
83495;SDS011;73431;40.794;43.836;2024-02-23T15:08:55;13.40;;;3.85;;
83495;SDS011;73431;40.794;43.836;2024-02-23T15:11:24;16.30;;;5.38;;
83495;SDS011;73431;40.794;43.836;2024-02-23T15:13:53;21.05;;;6.88;;
83495;SDS011;73431;40.794;43.836;2024-02-23T15:16:25;19.13;;;6.65;;
83495;SDS011;73431;40.794;43.836;2024-02-23T15:18:53;28.50;;;7.90;;
83495;SDS011;73431;40.794;43.836;2024-02-23T15:23:48;23.63;;;7.53;;
83495;SDS011;73431;40.794;43.836;2024-02-23T15:26:16;21.17;;;8.05;;
83495;SDS011;73431;40.794;43.836;2024-02-23T15:28:44;28.92;;;9.57;;
83495;SDS011;73431;40.794;43.836;2024-02-23T15:33:41;25.83;;;10.50;;
83495;SDS011;73431;40.794;43.836;2024-02-23T15:38:37;22.42;;;7.43;;
83495;SDS011;73431;40.794;43.836;2024-02-23T15:41:05;20.27;;;5.60;;
83495;SDS011;73431;40.794;43.836;2024-02-23T15:43:32;22.40;;;8.00;;
83495;SDS011;73431;40.794;43.836;2024-02-23T15:46:00;23.60;;;9.00;;
83495;SDS011;73431;40.794;43.836;2024-02-23T15:48:29;25.17;;;9.05;;